createdAt,value
2022-12-16T00:02:13.170Z,36.23
2022-12-16T00:07:16.453Z,42.00
2022-12-16T00:12:19.428Z,43.00
2022-12-16T00:17:23.909Z,40.70
2022-12-16T00:22:26.952Z,40.87
2022-12-16T00:27:29.965Z,38.53
2022-12-16T00:32:34.451Z,37.13
2022-12-16T00:37:37.584Z,34.93
2022-12-16T00:42:40.600Z,31.70
2022-12-16T00:47:45.044Z,27.97
2022-12-16T00:52:48.689Z,32.40
2022-12-16T00:57:51.735Z,34.53
2022-12-16T01:02:56.506Z,33.43
2022-12-16T01:07:59.689Z,31.57
2022-12-16T01:13:02.966Z,29.90
2022-12-16T01:18:07.648Z,30.73
2022-12-16T01:23:10.925Z,56.40
2022-12-16T01:28:14.251Z,48.50
2022-12-16T01:33:18.709Z,67.83
2022-12-16T01:38:21.830Z,44.73
2022-12-16T01:43:28.204Z,34.00
2022-12-16T01:48:43.189Z,26.40
2022-12-16T01:53:47.492Z,20.97
2022-12-16T01:58:52.436Z,27.03
2022-12-16T02:04:02.316Z,24.53
2022-12-16T02:09:08.906Z,17.27
2022-12-16T02:14:32.677Z,21.43
2022-12-16T02:20:10.129Z,35.30
2022-12-16T02:25:48.183Z,100.50
2022-12-16T02:31:14.212Z,64.43
2022-12-16T02:36:26.665Z,26.07
2022-12-16T02:41:38.897Z,17.50
2022-12-16T02:46:45.659Z,16.90
2022-12-16T02:51:50.508Z,21.13
2022-12-16T02:57:07.427Z,16.93
2022-12-16T03:02:16.017Z,16.17
2022-12-16T03:07:22.225Z,17.53
2022-12-16T03:12:25.942Z,16.23
2022-12-16T03:17:30.573Z,16.40
2022-12-16T03:22:37.990Z,16.57
2022-12-16T03:27:46.168Z,13.93
2022-12-16T03:32:59.004Z,15.77
2022-12-16T03:38:06.828Z,14.53
2022-12-16T03:43:14.225Z,14.43
2022-12-16T03:48:20.606Z,14.17
2022-12-16T03:53:26.470Z,15.57
2022-12-16T03:58:29.613Z,13.60
2022-12-16T04:03:34.295Z,13.53
2022-12-16T04:08:37.718Z,10.63
2022-12-16T04:13:58.243Z,8.93
2022-12-16T04:19:20.583Z,10.93
2022-12-16T04:24:31.287Z,10.20
2022-12-16T04:29:54.888Z,7.40
2022-12-16T04:35:13.071Z,7.33
2022-12-16T04:40:33.655Z,6.37
2022-12-16T04:45:57.076Z,7.43
2022-12-16T04:51:19.137Z,8.17
2022-12-16T04:56:39.429Z,10.00
2022-12-16T05:02:02.184Z,7.27
2022-12-16T05:07:24.595Z,7.43
2022-12-16T05:12:45.130Z,5.93
2022-12-16T05:18:05.678Z,7.93
2022-12-16T05:23:27.239Z,8.10
2022-12-16T05:28:47.791Z,7.83
2022-12-16T05:34:08.356Z,7.87
2022-12-16T05:39:30.483Z,9.97
2022-12-16T05:44:50.170Z,7.00
2022-12-16T05:50:10.459Z,6.40
2022-12-16T05:55:34.246Z,14.17
2022-12-16T06:01:00.736Z,10.30
2022-12-16T06:06:21.429Z,13.47
2022-12-16T06:11:43.271Z,10.60
2022-12-16T06:17:03.571Z,10.23
2022-12-16T06:22:24.070Z,14.47
2022-12-16T06:27:45.526Z,12.70
2022-12-16T06:33:14.804Z,10.93
2022-12-16T06:38:35.451Z,17.30
2022-12-16T06:43:57.369Z,13.10
2022-12-16T06:49:23.161Z,10.50
2022-12-16T06:54:43.483Z,13.47
2022-12-16T07:00:05.142Z,10.63
2022-12-16T07:05:45.318Z,15.83
2022-12-16T07:11:15.994Z,11.27
2022-12-16T07:16:38.100Z,11.93
2022-12-16T07:21:58.381Z,12.40
2022-12-16T07:27:18.953Z,7.10
2022-12-16T07:32:46.464Z,14.10
2022-12-16T07:38:07.185Z,14.73
2022-12-16T07:43:27.781Z,8.53
2022-12-16T07:48:50.042Z,8.23
2022-12-16T07:54:11.271Z,11.03
2022-12-16T07:59:31.945Z,7.10
2022-12-16T08:05:01.358Z,6.43
2022-12-16T08:10:22.498Z,11.63
2022-12-16T08:15:43.092Z,9.50
2022-12-16T08:21:04.964Z,16.03
2022-12-16T08:26:25.638Z,8.87
2022-12-16T08:31:57.740Z,7.87
2022-12-16T08:37:20.303Z,11.40
2022-12-16T08:42:40.577Z,6.43
2022-12-16T08:48:01.189Z,9.20
2022-12-16T08:53:23.323Z,6.00
2022-12-16T08:58:43.894Z,9.67
2022-12-16T09:04:04.640Z,6.33
2022-12-16T09:09:26.737Z,8.73
2022-12-16T09:14:47.634Z,11.37
2022-12-16T09:20:04.571Z,8.33
2022-12-16T09:25:27.316Z,9.13
2022-12-16T09:31:02.952Z,7.70
2022-12-16T09:36:24.201Z,8.43
2022-12-16T09:42:00.486Z,6.30
2022-12-16T09:47:27.012Z,5.53
2022-12-16T09:52:51.818Z,6.40
2022-12-16T09:58:13.912Z,7.43
2022-12-16T10:03:40.618Z,5.70
2022-12-16T10:09:08.731Z,8.43
2022-12-16T10:14:37.678Z,5.63
2022-12-16T10:20:10.399Z,6.83
2022-12-16T10:25:36.056Z,9.57
2022-12-16T10:30:57.884Z,5.73
2022-12-16T10:36:22.042Z,7.87
2022-12-16T10:41:48.300Z,6.70
2022-12-16T10:47:10.174Z,7.13
2022-12-16T10:52:32.370Z,10.23
2022-12-16T10:58:01.657Z,6.50
2022-12-16T11:03:40.750Z,5.83
2022-12-16T11:09:01.653Z,8.73
2022-12-16T11:14:34.264Z,8.40
2022-12-16T11:19:56.123Z,5.40
2022-12-16T11:25:25.364Z,4.70
2022-12-16T11:30:45.989Z,7.33
2022-12-16T11:36:11.946Z,5.10
2022-12-16T11:41:46.875Z,10.57
2022-12-16T11:47:08.423Z,5.73
2022-12-16T11:52:37.972Z,7.83
2022-12-16T11:58:06.101Z,4.07
2022-12-16T12:03:31.417Z,7.33
2022-12-16T12:09:02.801Z,5.73
2022-12-16T12:14:44.793Z,6.07
2022-12-16T12:20:16.478Z,5.67
2022-12-16T12:25:42.992Z,5.07
2022-12-16T12:31:11.389Z,7.70
2022-12-16T12:36:40.763Z,6.53
2022-12-16T12:42:27.085Z,10.13
2022-12-16T12:47:51.478Z,4.83
2022-12-16T12:53:32.903Z,8.83
2022-12-16T12:58:57.523Z,13.37
2022-12-16T13:04:25.719Z,5.87
2022-12-16T13:09:50.619Z,6.17
2022-12-16T13:15:22.607Z,6.53
2022-12-16T13:20:56.439Z,6.37
2022-12-16T13:26:33.418Z,8.80
2022-12-16T13:32:35.692Z,6.93
2022-12-16T13:37:55.984Z,6.50
2022-12-16T13:43:21.952Z,7.97
2022-12-16T13:48:50.541Z,6.97
2022-12-16T13:54:12.761Z,6.47
2022-12-16T13:59:38.218Z,7.67
2022-12-16T14:05:11.148Z,8.53
2022-12-16T14:10:46.372Z,6.50
2022-12-16T14:16:20.400Z,7.03
2022-12-16T14:21:51.343Z,8.27
2022-12-16T14:27:12.113Z,11.80
2022-12-16T14:32:45.274Z,8.20
2022-12-16T14:38:07.235Z,9.63
2022-12-16T14:43:32.416Z,14.73
2022-12-16T14:48:55.127Z,9.90
2022-12-16T14:54:35.955Z,8.40
2022-12-16T14:59:56.540Z,9.67
2022-12-16T15:05:17.873Z,11.03
2022-12-16T15:10:42.899Z,9.07
2022-12-16T15:16:07.227Z,10.67
2022-12-16T15:21:27.956Z,11.03
2022-12-16T15:26:52.749Z,9.17
2022-12-16T15:32:13.126Z,11.87
2022-12-16T15:37:43.332Z,9.80
2022-12-16T15:43:10.211Z,10.13
2022-12-16T15:48:38.495Z,13.80
2022-12-16T15:53:59.197Z,12.33
2022-12-16T15:59:43.958Z,11.10
2022-12-16T16:05:05.836Z,12.17
2022-12-16T16:10:48.735Z,11.70
2022-12-16T16:16:13.144Z,12.37
2022-12-16T16:21:33.521Z,9.80
2022-12-16T16:26:54.349Z,12.07
2022-12-16T16:32:16.220Z,12.50
2022-12-16T16:37:39.546Z,9.37
2022-12-16T16:42:59.858Z,9.53
2022-12-16T16:48:32.038Z,9.90
2022-12-16T16:53:52.662Z,11.63
2022-12-16T16:59:18.507Z,8.10
2022-12-16T17:04:41.100Z,11.57
2022-12-16T17:10:01.926Z,11.97
2022-12-16T17:15:38.605Z,11.37
2022-12-16T17:21:03.723Z,12.40
2022-12-16T17:26:24.132Z,11.33
2022-12-16T17:31:44.746Z,10.90
2022-12-16T17:37:07.030Z,11.13
2022-12-16T17:42:27.852Z,11.53
2022-12-16T17:47:48.779Z,9.93
2022-12-16T17:53:13.356Z,11.53
2022-12-16T17:58:33.967Z,12.17
2022-12-16T18:03:54.746Z,12.63
2022-12-16T18:09:17.050Z,11.93
2022-12-16T18:14:37.766Z,10.00
2022-12-16T18:19:58.127Z,13.67
2022-12-16T18:25:20.368Z,12.10
2022-12-16T18:30:41.301Z,12.30
2022-12-16T18:36:01.606Z,14.77
2022-12-16T18:41:25.022Z,13.97
2022-12-16T18:46:47.555Z,13.73
2022-12-16T18:52:08.027Z,14.77
2022-12-16T18:57:33.911Z,11.27
2022-12-16T19:02:57.231Z,11.77
2022-12-16T19:08:20.176Z,13.70
2022-12-16T19:13:42.202Z,14.37
2022-12-16T19:19:05.398Z,12.83
2022-12-16T19:24:26.680Z,13.63
2022-12-16T19:29:48.519Z,14.20
2022-12-16T19:35:08.893Z,13.17
2022-12-16T19:40:30.119Z,12.70
2022-12-16T19:45:56.462Z,11.37
2022-12-16T19:51:17.966Z,12.53
2022-12-16T19:56:38.621Z,13.57
2022-12-16T20:02:00.757Z,20.63
2022-12-16T20:07:23.318Z,15.30
2022-12-16T20:12:46.695Z,14.03
2022-12-16T20:18:10.700Z,12.47
2022-12-16T20:23:31.227Z,13.70
2022-12-16T20:29:04.968Z,11.77
2022-12-16T20:34:27.462Z,14.53
2022-12-16T20:39:56.510Z,10.37
2022-12-16T20:45:19.280Z,12.17
2022-12-16T20:50:43.714Z,10.43
2022-12-16T20:56:04.566Z,12.73
2022-12-16T21:01:25.460Z,10.87
2022-12-16T21:06:47.774Z,11.87
2022-12-16T21:12:07.993Z,13.30
2022-12-16T21:17:29.381Z,11.60
2022-12-16T21:22:56.558Z,14.77
2022-12-16T21:28:18.128Z,19.67
2022-12-16T21:33:39.407Z,15.13
2022-12-16T21:39:01.686Z,18.73
2022-12-16T21:44:22.236Z,18.00
2022-12-16T21:49:42.783Z,20.63
2022-12-16T21:55:05.550Z,25.07
2022-12-16T22:00:27.203Z,43.87
2022-12-16T22:05:49.384Z,43.70
2022-12-16T22:11:11.257Z,43.57
2022-12-16T22:16:31.681Z,42.70
2022-12-16T22:21:51.992Z,55.73
2022-12-16T22:27:14.071Z,36.13
2022-12-16T22:32:34.768Z,40.27
2022-12-16T22:37:56.057Z,34.77
2022-12-16T22:43:18.433Z,31.93
2022-12-16T22:48:41.842Z,33.57
2022-12-16T22:54:02.612Z,36.03
2022-12-16T22:59:25.032Z,36.33
2022-12-16T23:04:48.839Z,45.07
2022-12-16T23:10:09.334Z,59.83
2022-12-16T23:15:31.952Z,80.93
2022-12-16T23:20:56.504Z,59.83
2022-12-16T23:26:23.079Z,69.73
2022-12-16T23:31:44.857Z,82.83
2022-12-16T23:37:07.162Z,72.80
2022-12-16T23:42:27.627Z,86.30
2022-12-16T23:47:49.416Z,103.63
2022-12-16T23:53:10.020Z,87.10
2022-12-16T23:58:30.325Z,65.23
